createdAt,value
2023-03-31T00:00:58.335Z,9.60
2023-03-31T00:02:13.401Z,9.64
2023-03-31T00:03:21.986Z,9.64
2023-03-31T00:04:26.179Z,9.65
2023-03-31T00:05:28.470Z,9.58
2023-03-31T00:06:41.858Z,9.58
2023-03-31T00:07:46.217Z,9.52
2023-03-31T00:08:52.379Z,9.54
2023-03-31T00:10:04.004Z,9.47
2023-03-31T00:11:17.674Z,9.51
2023-03-31T00:12:19.772Z,9.49
2023-03-31T00:13:21.900Z,9.53
2023-03-31T00:14:24.086Z,9.52
2023-03-31T00:15:26.439Z,9.54
2023-03-31T00:16:28.610Z,9.51
2023-03-31T00:17:33.380Z,9.55
2023-03-31T00:18:35.958Z,9.60
2023-03-31T00:19:40.235Z,9.64
2023-03-31T00:20:43.050Z,9.71
2023-03-31T00:21:46.516Z,9.76
2023-03-31T00:22:48.637Z,9.80
2023-03-31T00:23:55.518Z,9.93
2023-03-31T00:24:57.608Z,9.94
2023-03-31T00:25:59.716Z,9.93
2023-03-31T00:27:03.205Z,9.91
2023-03-31T00:28:05.734Z,9.89
2023-03-31T00:29:09.634Z,9.92
2023-03-31T00:30:13.451Z,9.97
2023-03-31T00:31:16.174Z,10.04
2023-03-31T00:32:18.354Z,10.08
2023-03-31T00:33:21.303Z,10.16
2023-03-31T00:34:23.418Z,10.22
2023-03-31T00:35:25.769Z,10.27
2023-03-31T00:36:28.241Z,10.28
2023-03-31T00:37:30.415Z,10.32
2023-03-31T00:38:33.103Z,10.37
2023-03-31T00:39:35.570Z,10.54
2023-03-31T00:40:44.662Z,10.55
2023-03-31T00:41:46.850Z,10.50
2023-03-31T00:42:48.936Z,10.48
2023-03-31T00:44:13.185Z,10.56
2023-03-31T00:45:15.516Z,10.60
2023-03-31T00:46:20.364Z,10.67
2023-03-31T00:47:23.110Z,10.69
2023-03-31T00:48:25.320Z,10.78
2023-03-31T00:49:33.843Z,10.83
2023-03-31T00:50:42.098Z,10.84
2023-03-31T00:51:44.869Z,10.86
2023-03-31T00:52:49.693Z,10.91
2023-03-31T00:53:59.763Z,10.91
2023-03-31T00:55:06.666Z,10.90
2023-03-31T00:56:14.021Z,10.89
2023-03-31T00:57:16.548Z,10.93
2023-03-31T00:58:21.224Z,11.01
2023-03-31T00:59:24.431Z,11.00
2023-03-31T01:00:26.524Z,10.97
2023-03-31T01:01:30.611Z,10.92
2023-03-31T01:02:33.256Z,10.92
2023-03-31T01:03:35.635Z,10.90
2023-03-31T01:04:44.705Z,10.98
2023-03-31T01:05:56.393Z,10.96
2023-03-31T01:07:04.524Z,10.97
2023-03-31T01:08:07.056Z,11.02
2023-03-31T01:09:09.984Z,10.96
2023-03-31T01:10:12.729Z,10.94
2023-03-31T01:11:16.578Z,10.95
2023-03-31T01:12:19.290Z,10.91
2023-03-31T01:13:21.855Z,10.89
2023-03-31T01:14:24.040Z,10.86
2023-03-31T01:15:26.267Z,10.86
2023-03-31T01:16:28.453Z,10.85
2023-03-31T01:17:31.077Z,10.88
2023-03-31T01:18:36.309Z,10.86
2023-03-31T01:19:46.139Z,10.87
2023-03-31T01:21:08.438Z,10.83
2023-03-31T01:22:33.376Z,10.84
2023-03-31T01:24:12.408Z,10.90
2023-03-31T01:25:20.606Z,10.85
2023-03-31T01:26:41.974Z,10.84
2023-03-31T01:28:28.556Z,10.80
2023-03-31T01:29:45.921Z,10.95
2023-03-31T01:31:06.155Z,10.91
2023-03-31T01:32:47.058Z,10.87
2023-03-31T01:34:13.379Z,10.90
2023-03-31T01:35:50.485Z,10.85
2023-03-31T01:37:17.202Z,10.85
2023-03-31T01:38:28.325Z,10.81
2023-03-31T01:40:01.436Z,10.78
2023-03-31T01:41:25.082Z,10.76
2023-03-31T01:42:29.933Z,10.73
2023-03-31T01:43:46.733Z,10.66
2023-03-31T01:45:03.076Z,10.62
2023-03-31T01:46:09.921Z,10.60
2023-03-31T01:47:22.906Z,10.61
2023-03-31T01:48:30.255Z,10.61
2023-03-31T01:49:50.789Z,10.67
2023-03-31T01:50:56.693Z,10.71
2023-03-31T01:52:17.414Z,10.69
2023-03-31T01:53:40.492Z,10.62
2023-03-31T01:54:50.845Z,10.56
2023-03-31T01:56:13.855Z,10.51
2023-03-31T01:57:29.817Z,10.49
2023-03-31T01:58:36.438Z,10.48
2023-03-31T01:59:43.650Z,10.52
2023-03-31T02:00:56.898Z,10.52
2023-03-31T02:02:14.551Z,10.55
2023-03-31T02:03:22.019Z,10.50
2023-03-31T02:04:29.582Z,10.50
2023-03-31T02:05:38.534Z,10.53
2023-03-31T02:06:44.022Z,10.58
2023-03-31T02:07:58.647Z,10.59
2023-03-31T02:09:04.904Z,10.57
2023-03-31T02:10:09.641Z,10.59
2023-03-31T02:11:12.216Z,10.64
2023-03-31T02:12:14.685Z,10.61
2023-03-31T02:13:18.262Z,10.61
2023-03-31T02:14:24.187Z,10.62
2023-03-31T02:15:29.309Z,10.57
2023-03-31T02:16:33.607Z,10.53
2023-03-31T02:17:40.201Z,10.50
2023-03-31T02:18:43.253Z,10.48
2023-03-31T02:19:49.712Z,10.46
2023-03-31T02:20:52.785Z,10.46
2023-03-31T02:21:55.629Z,10.46
2023-03-31T02:22:58.088Z,10.44
2023-03-31T02:24:07.246Z,10.44
2023-03-31T02:25:11.873Z,10.43
2023-03-31T02:26:16.845Z,10.41
2023-03-31T02:27:31.869Z,10.42
2023-03-31T02:28:34.298Z,10.42
2023-03-31T02:29:36.491Z,10.41
2023-03-31T02:31:04.097Z,10.41
2023-03-31T02:32:15.599Z,10.38
2023-03-31T02:33:17.732Z,10.35
2023-03-31T02:34:19.886Z,10.33
2023-03-31T02:35:23.108Z,10.31
2023-03-31T02:36:25.619Z,10.29
2023-03-31T02:37:29.397Z,10.29
2023-03-31T02:38:39.244Z,10.24
2023-03-31T02:39:43.576Z,10.22
2023-03-31T02:40:46.054Z,10.14
2023-03-31T02:41:48.177Z,10.06
2023-03-31T02:42:50.473Z,10.05
2023-03-31T02:43:52.650Z,10.04
2023-03-31T02:44:54.888Z,10.07
2023-03-31T02:45:57.111Z,10.03
2023-03-31T02:46:59.197Z,10.02
2023-03-31T02:48:01.440Z,9.99
2023-03-31T02:49:06.233Z,9.91
2023-03-31T02:50:08.565Z,9.87
2023-03-31T02:51:27.625Z,9.83
2023-03-31T02:52:46.577Z,9.81
2023-03-31T02:54:24.019Z,9.82
2023-03-31T02:55:31.732Z,9.81
2023-03-31T02:56:51.806Z,9.85
2023-03-31T02:58:34.537Z,9.85
2023-03-31T03:00:01.573Z,9.88
2023-03-31T03:01:09.868Z,9.83
2023-03-31T03:02:11.996Z,9.80
2023-03-31T03:03:41.256Z,9.86
2023-03-31T03:05:02.272Z,9.93
2023-03-31T03:06:33.541Z,9.91
2023-03-31T03:07:47.991Z,9.95
2023-03-31T03:09:34.741Z,9.97
2023-03-31T03:10:42.220Z,9.96
2023-03-31T03:11:55.849Z,9.92
2023-03-31T03:13:04.424Z,9.95
2023-03-31T03:14:09.549Z,9.97
2023-03-31T03:15:17.289Z,9.99
2023-03-31T03:16:24.672Z,9.99
2023-03-31T03:17:36.643Z,10.03
2023-03-31T03:18:38.923Z,10.07
2023-03-31T03:19:42.342Z,10.13
2023-03-31T03:20:49.274Z,10.12
2023-03-31T03:21:51.454Z,10.13
2023-03-31T03:22:53.540Z,10.16
2023-03-31T03:23:55.696Z,10.17
2023-03-31T03:24:57.828Z,10.18
2023-03-31T03:25:59.952Z,10.20
2023-03-31T03:27:02.078Z,10.17
2023-03-31T03:28:04.167Z,10.13
2023-03-31T03:29:06.364Z,10.05
2023-03-31T03:30:10.838Z,10.05
2023-03-31T03:31:13.592Z,10.01
2023-03-31T03:32:15.975Z,9.99
2023-03-31T03:33:18.205Z,9.97
2023-03-31T03:34:20.351Z,9.94
2023-03-31T03:35:22.497Z,9.91
2023-03-31T03:36:25.028Z,9.89
2023-03-31T03:37:27.267Z,9.86
2023-03-31T03:38:29.406Z,9.86
2023-03-31T03:39:31.857Z,9.86
2023-03-31T03:40:33.945Z,9.88
2023-03-31T03:41:36.320Z,9.87
2023-03-31T03:42:38.735Z,9.84
2023-03-31T03:43:40.983Z,9.86
2023-03-31T03:44:43.162Z,9.87
2023-03-31T03:45:52.039Z,9.86
2023-03-31T03:46:54.171Z,9.91
2023-03-31T03:47:56.339Z,9.91
2023-03-31T03:48:58.472Z,9.89
2023-03-31T03:50:00.637Z,9.89
2023-03-31T03:51:02.917Z,9.86
2023-03-31T03:52:05.490Z,9.88
2023-03-31T03:53:08.187Z,9.90
2023-03-31T03:54:10.376Z,9.94
2023-03-31T03:55:12.604Z,9.93
2023-03-31T03:56:14.817Z,9.93
2023-03-31T03:57:17.372Z,9.94
2023-03-31T03:58:19.950Z,9.95
2023-03-31T03:59:22.382Z,9.96
2023-03-31T04:00:24.512Z,9.94
2023-03-31T04:01:26.643Z,9.92
2023-03-31T04:02:29.087Z,9.93
2023-03-31T04:03:31.757Z,9.90
2023-03-31T04:04:33.917Z,9.88
2023-03-31T04:05:36.048Z,9.90
2023-03-31T04:06:38.410Z,9.90
2023-03-31T04:07:40.533Z,9.87
2023-03-31T04:08:42.651Z,9.90
2023-03-31T04:09:44.749Z,9.88
2023-03-31T04:10:49.206Z,9.86
2023-03-31T04:11:51.345Z,9.90
2023-03-31T04:12:53.550Z,9.85
2023-03-31T04:13:55.927Z,9.84
2023-03-31T04:14:58.128Z,9.81
2023-03-31T04:16:00.295Z,9.77
2023-03-31T04:17:02.712Z,9.71
2023-03-31T04:18:04.913Z,9.69
2023-03-31T04:19:07.081Z,9.69
2023-03-31T04:20:11.775Z,9.67
2023-03-31T04:21:23.161Z,9.67
2023-03-31T04:22:29.241Z,9.67
2023-03-31T04:23:38.429Z,9.69
2023-03-31T04:24:40.538Z,9.67
2023-03-31T04:25:46.544Z,9.69
2023-03-31T04:26:51.018Z,9.70
2023-03-31T04:27:55.992Z,9.76
2023-03-31T04:29:01.286Z,9.69
2023-03-31T04:30:03.608Z,9.71
2023-03-31T04:31:09.413Z,9.74
2023-03-31T04:32:15.045Z,9.74
2023-03-31T04:33:17.406Z,9.75
2023-03-31T04:34:19.701Z,9.76
2023-03-31T04:35:23.511Z,9.76
2023-03-31T04:36:25.657Z,9.78
2023-03-31T04:37:28.345Z,9.78
2023-03-31T04:38:34.022Z,9.74
2023-03-31T04:39:36.173Z,9.77
2023-03-31T04:40:39.991Z,9.74
2023-03-31T04:41:42.133Z,9.79
2023-03-31T04:42:45.013Z,9.79
2023-03-31T04:43:47.216Z,9.75
2023-03-31T04:44:49.324Z,9.82
2023-03-31T04:45:51.674Z,9.79
2023-03-31T04:46:54.405Z,9.77
2023-03-31T04:47:56.543Z,9.72
2023-03-31T04:48:59.313Z,9.74
2023-03-31T04:50:01.427Z,9.76
2023-03-31T04:51:03.955Z,9.78
2023-03-31T04:52:06.269Z,9.83
2023-03-31T04:53:08.634Z,9.94
2023-03-31T04:54:10.959Z,9.97
2023-03-31T04:55:13.099Z,9.97
2023-03-31T04:56:15.509Z,9.98
2023-03-31T04:57:17.704Z,10.00
2023-03-31T04:58:19.875Z,10.04
2023-03-31T04:59:22.008Z,10.05
2023-03-31T05:00:24.249Z,10.04
2023-03-31T05:01:26.418Z,10.03
2023-03-31T05:02:28.666Z,10.02
2023-03-31T05:03:31.128Z,10.05
2023-03-31T05:04:33.371Z,10.02
2023-03-31T05:05:36.420Z,10.03
2023-03-31T05:06:38.569Z,10.10
2023-03-31T05:07:40.844Z,10.13
2023-03-31T05:08:43.858Z,10.14
2023-03-31T05:09:47.038Z,10.12
2023-03-31T05:10:49.309Z,10.12
2023-03-31T05:11:51.733Z,10.11
2023-03-31T05:12:54.108Z,10.15
2023-03-31T05:13:57.192Z,10.18
2023-03-31T05:14:59.273Z,10.23
2023-03-31T05:16:14.858Z,10.31
2023-03-31T05:17:18.141Z,10.33
2023-03-31T05:18:20.401Z,10.32
2023-03-31T05:19:22.499Z,10.32
2023-03-31T05:20:24.644Z,10.30
2023-03-31T05:21:27.305Z,10.30
2023-03-31T05:22:29.564Z,10.43
2023-03-31T05:23:32.136Z,10.59
2023-03-31T05:24:34.321Z,10.94
2023-03-31T05:25:36.516Z,11.19
2023-03-31T05:26:39.938Z,11.34
2023-03-31T05:27:42.004Z,11.28
2023-03-31T05:28:44.611Z,11.18
2023-03-31T05:29:47.239Z,11.04
2023-03-31T05:30:49.438Z,10.99
2023-03-31T05:31:53.321Z,10.96
2023-03-31T05:32:56.114Z,10.96
2023-03-31T05:33:58.231Z,10.99
2023-03-31T05:35:00.360Z,11.02
2023-03-31T05:36:02.547Z,11.04
2023-03-31T05:37:04.760Z,11.12
2023-03-31T05:38:07.756Z,11.18
2023-03-31T05:39:10.188Z,11.22
2023-03-31T05:40:12.537Z,11.30
2023-03-31T05:41:16.753Z,11.36
2023-03-31T05:42:19.817Z,11.39
2023-03-31T05:43:22.032Z,11.45
2023-03-31T05:44:24.164Z,11.55
2023-03-31T05:45:26.311Z,11.60
2023-03-31T05:46:28.657Z,11.65
2023-03-31T05:47:31.187Z,11.74
2023-03-31T05:48:33.377Z,11.79
2023-03-31T05:49:35.783Z,11.84
2023-03-31T05:50:37.898Z,11.91
2023-03-31T05:51:40.053Z,12.00
2023-03-31T05:52:42.209Z,12.05
2023-03-31T05:53:44.445Z,12.12
2023-03-31T05:54:46.635Z,12.17
2023-03-31T05:55:48.723Z,12.21
2023-03-31T05:56:50.902Z,12.29
2023-03-31T05:57:53.096Z,12.35
2023-03-31T05:58:55.333Z,12.44
2023-03-31T05:59:57.541Z,12.47
2023-03-31T06:01:02.574Z,12.55
2023-03-31T06:02:05.169Z,12.66
2023-03-31T06:03:08.057Z,12.64
2023-03-31T06:04:10.344Z,12.65
2023-03-31T06:05:12.596Z,12.70
2023-03-31T06:06:16.486Z,12.71
2023-03-31T06:07:19.247Z,12.74
2023-03-31T06:08:21.397Z,12.78
2023-03-31T06:09:23.946Z,12.71
2023-03-31T06:10:26.128Z,12.70
2023-03-31T06:11:28.269Z,12.65
2023-03-31T06:12:32.477Z,12.65
2023-03-31T06:13:35.766Z,12.58
2023-03-31T06:14:37.922Z,12.66
2023-03-31T06:15:40.128Z,12.74
2023-03-31T06:16:42.415Z,12.78
2023-03-31T06:17:44.608Z,12.80
2023-03-31T06:18:46.844Z,12.86
2023-03-31T06:19:48.957Z,12.89
2023-03-31T06:20:51.998Z,12.88
2023-03-31T06:21:54.104Z,12.82
2023-03-31T06:22:56.289Z,12.74
2023-03-31T06:24:00.350Z,12.68
2023-03-31T06:25:02.548Z,12.67
2023-03-31T06:26:08.828Z,12.68
2023-03-31T06:27:11.043Z,12.62
2023-03-31T06:28:13.254Z,12.54
2023-03-31T06:29:15.487Z,12.62
2023-03-31T06:30:17.657Z,12.77
2023-03-31T06:31:22.376Z,12.76
2023-03-31T06:32:24.622Z,12.82
2023-03-31T06:33:26.742Z,12.80
2023-03-31T06:34:29.029Z,12.80
2023-03-31T06:35:31.214Z,12.77
2023-03-31T06:36:33.433Z,12.86
2023-03-31T06:37:35.961Z,12.83
2023-03-31T06:38:41.602Z,12.86
2023-03-31T06:39:44.765Z,12.87
2023-03-31T06:40:46.893Z,12.82
2023-03-31T06:41:49.043Z,12.98
2023-03-31T06:42:51.525Z,12.99
2023-03-31T06:43:53.712Z,13.02
2023-03-31T06:44:56.020Z,13.04
2023-03-31T06:45:58.530Z,13.10
2023-03-31T06:47:00.854Z,13.17
2023-03-31T06:48:03.004Z,13.17
2023-03-31T06:49:05.192Z,13.22
2023-03-31T06:50:09.661Z,13.24
2023-03-31T06:51:12.046Z,13.35
2023-03-31T06:52:14.853Z,13.39
2023-03-31T06:53:17.014Z,13.40
2023-03-31T06:54:19.186Z,13.48
2023-03-31T06:55:21.370Z,13.56
2023-03-31T06:56:23.575Z,13.60
2023-03-31T06:57:25.732Z,13.67
2023-03-31T06:58:31.100Z,13.70
2023-03-31T06:59:33.838Z,13.70
2023-03-31T07:00:36.275Z,13.77
2023-03-31T07:01:39.268Z,13.84
2023-03-31T07:02:41.563Z,13.89
2023-03-31T07:03:43.763Z,13.96
2023-03-31T07:04:45.895Z,13.95
2023-03-31T07:05:50.254Z,14.02
2023-03-31T07:06:52.399Z,14.12
2023-03-31T07:07:56.122Z,14.15
2023-03-31T07:08:58.250Z,14.21
2023-03-31T07:10:00.604Z,14.34
2023-03-31T07:11:02.913Z,14.43
2023-03-31T07:12:05.419Z,14.52
2023-03-31T07:13:07.608Z,14.56
2023-03-31T07:14:10.143Z,14.44
2023-03-31T07:15:12.384Z,14.50
2023-03-31T07:16:14.627Z,14.52
2023-03-31T07:17:16.864Z,14.41
2023-03-31T07:18:19.621Z,14.29
2023-03-31T07:19:21.814Z,14.39
2023-03-31T07:20:23.938Z,14.48
2023-03-31T07:21:26.524Z,14.30
2023-03-31T07:22:28.993Z,14.30
2023-03-31T07:23:31.338Z,14.34
2023-03-31T07:24:33.505Z,14.34
2023-03-31T07:25:36.320Z,14.40
2023-03-31T07:26:38.483Z,14.22
2023-03-31T07:27:40.558Z,14.28
2023-03-31T07:28:42.819Z,14.31
2023-03-31T07:29:45.005Z,14.17
2023-03-31T07:30:47.167Z,14.19
2023-03-31T07:31:49.363Z,14.14
2023-03-31T07:32:52.805Z,14.08
2023-03-31T07:33:55.002Z,14.23
2023-03-31T07:34:57.162Z,14.32
2023-03-31T07:36:10.885Z,14.38
2023-03-31T07:37:14.566Z,14.37
2023-03-31T07:38:16.745Z,14.53
2023-03-31T07:39:18.886Z,14.60
2023-03-31T07:40:26.642Z,14.49
2023-03-31T07:41:28.837Z,14.33
2023-03-31T07:42:31.332Z,14.33
2023-03-31T07:43:33.471Z,14.39
2023-03-31T07:44:36.666Z,14.30
2023-03-31T07:45:39.689Z,14.45
2023-03-31T07:46:42.065Z,14.58
2023-03-31T07:47:46.509Z,14.75
2023-03-31T07:48:49.620Z,14.72
2023-03-31T07:49:51.747Z,14.69
2023-03-31T07:50:53.821Z,14.44
2023-03-31T07:51:56.163Z,14.42
2023-03-31T07:52:58.366Z,14.46
2023-03-31T07:54:00.704Z,14.50
2023-03-31T07:55:03.998Z,14.71
2023-03-31T07:56:06.390Z,14.90
2023-03-31T07:57:10.364Z,15.00
2023-03-31T07:58:12.568Z,14.86
2023-03-31T07:59:14.776Z,14.95
2023-03-31T08:00:17.680Z,15.20
2023-03-31T08:01:21.591Z,15.39
2023-03-31T08:02:24.030Z,15.47
2023-03-31T08:03:26.557Z,15.32
2023-03-31T08:04:28.823Z,15.23
2023-03-31T08:05:31.033Z,15.36
2023-03-31T08:06:33.312Z,15.41
2023-03-31T08:07:36.721Z,15.57
2023-03-31T08:08:43.245Z,15.76
2023-03-31T08:09:46.750Z,15.66
2023-03-31T08:10:49.315Z,15.45
2023-03-31T08:11:51.763Z,15.20
2023-03-31T08:12:54.026Z,15.05
2023-03-31T08:13:56.264Z,15.03
2023-03-31T08:14:58.640Z,15.25
2023-03-31T08:16:00.907Z,15.18
2023-03-31T08:17:03.763Z,15.17
2023-03-31T08:18:06.425Z,15.18
2023-03-31T08:19:08.591Z,15.03
2023-03-31T08:20:11.344Z,15.17
2023-03-31T08:21:13.643Z,15.19
2023-03-31T08:22:15.756Z,15.11
2023-03-31T08:23:17.886Z,14.97
2023-03-31T08:24:20.299Z,14.89
2023-03-31T08:25:23.723Z,14.78
2023-03-31T08:26:26.078Z,14.93
2023-03-31T08:27:28.307Z,15.06
2023-03-31T08:28:30.407Z,15.16
2023-03-31T08:29:32.738Z,15.31
2023-03-31T08:30:34.935Z,15.40
2023-03-31T08:31:37.117Z,15.40
2023-03-31T08:32:39.382Z,15.55
2023-03-31T08:33:41.596Z,15.61
2023-03-31T08:34:43.905Z,15.75
2023-03-31T08:35:46.049Z,15.99
2023-03-31T08:36:48.936Z,16.25
2023-03-31T08:37:51.150Z,16.43
2023-03-31T08:38:54.243Z,16.62
2023-03-31T08:39:56.434Z,16.66
2023-03-31T08:41:00.084Z,17.03
2023-03-31T08:42:09.371Z,17.13
2023-03-31T08:43:15.420Z,16.97
2023-03-31T08:44:46.334Z,17.47
2023-03-31T08:45:48.935Z,17.39
2023-03-31T08:46:53.006Z,17.70
2023-03-31T08:47:59.055Z,17.58
2023-03-31T08:49:03.528Z,17.80
2023-03-31T08:50:10.649Z,17.75
2023-03-31T08:51:17.756Z,17.10
2023-03-31T08:52:24.987Z,17.05
2023-03-31T08:53:30.328Z,17.02
2023-03-31T08:54:42.105Z,17.34
2023-03-31T08:55:49.243Z,17.67
2023-03-31T08:56:51.621Z,17.66
2023-03-31T08:58:00.740Z,17.73
2023-03-31T08:59:02.917Z,18.11
2023-03-31T09:00:07.263Z,18.52
2023-03-31T09:01:28.476Z,18.68
2023-03-31T09:02:39.199Z,18.60
2023-03-31T09:04:06.421Z,17.92
2023-03-31T09:05:35.863Z,17.79
2023-03-31T09:06:42.765Z,18.19
2023-03-31T09:08:20.337Z,18.38
2023-03-31T09:09:49.963Z,18.03
2023-03-31T09:10:58.630Z,17.95
2023-03-31T09:12:07.970Z,17.77
2023-03-31T09:13:10.028Z,18.13
2023-03-31T09:14:27.213Z,18.24
2023-03-31T09:16:09.321Z,18.39
2023-03-31T09:17:25.461Z,18.63
2023-03-31T09:18:35.975Z,18.89
2023-03-31T09:19:45.026Z,18.80
2023-03-31T09:20:50.714Z,18.58
2023-03-31T09:21:55.954Z,18.39
2023-03-31T09:23:22.229Z,18.03
2023-03-31T09:24:29.797Z,18.39
2023-03-31T09:25:36.546Z,18.74
2023-03-31T09:26:46.866Z,19.09
2023-03-31T09:27:50.817Z,19.31
2023-03-31T09:28:54.744Z,18.82
2023-03-31T09:30:05.379Z,18.51
2023-03-31T09:31:14.082Z,18.87
2023-03-31T09:32:21.550Z,19.03
2023-03-31T09:33:32.184Z,19.09
2023-03-31T09:34:34.962Z,19.10
2023-03-31T09:35:37.499Z,18.82
2023-03-31T09:36:39.627Z,18.96
2023-03-31T09:37:41.953Z,19.10
2023-03-31T09:38:45.594Z,19.39
2023-03-31T09:39:47.778Z,19.35
2023-03-31T09:40:50.056Z,18.96
2023-03-31T09:41:53.849Z,19.08
2023-03-31T09:43:22.272Z,19.14
2023-03-31T09:44:33.487Z,19.36
2023-03-31T09:45:35.829Z,19.65
2023-03-31T09:46:38.490Z,19.43
2023-03-31T09:48:14.351Z,19.36
2023-03-31T09:49:19.735Z,19.13
2023-03-31T09:50:25.218Z,19.16
2023-03-31T09:51:30.710Z,19.35
2023-03-31T09:52:35.656Z,19.55
2023-03-31T09:53:42.060Z,19.51
2023-03-31T09:54:48.386Z,19.17
2023-03-31T09:55:57.016Z,19.37
2023-03-31T09:56:59.280Z,19.26
2023-03-31T09:58:04.602Z,19.09
2023-03-31T09:59:06.746Z,19.66
2023-03-31T10:00:14.566Z,19.83
2023-03-31T10:01:16.805Z,19.81
2023-03-31T10:02:30.526Z,19.54
2023-03-31T10:03:37.092Z,19.25
2023-03-31T10:04:46.134Z,19.41
2023-03-31T10:05:52.696Z,19.65
2023-03-31T10:06:56.048Z,19.92
2023-03-31T10:08:29.054Z,19.57
2023-03-31T10:09:33.686Z,19.95
2023-03-31T10:10:35.864Z,20.05
2023-03-31T10:11:38.089Z,20.14
2023-03-31T10:12:40.338Z,20.44
2023-03-31T10:14:02.267Z,20.85
2023-03-31T10:15:26.595Z,20.80
2023-03-31T10:16:32.354Z,21.16
2023-03-31T10:17:47.129Z,21.17
2023-03-31T10:19:27.490Z,20.66
2023-03-31T10:20:39.617Z,21.42
2023-03-31T10:21:46.104Z,21.48
2023-03-31T10:22:48.219Z,20.77
2023-03-31T10:23:51.489Z,20.89
2023-03-31T10:24:53.927Z,21.01
2023-03-31T10:25:56.305Z,20.73
2023-03-31T10:26:58.445Z,20.33
2023-03-31T10:28:01.655Z,20.43
2023-03-31T10:29:10.787Z,20.52
2023-03-31T10:30:19.164Z,20.43
2023-03-31T10:31:26.314Z,20.88
2023-03-31T10:32:33.221Z,21.25
2023-03-31T10:33:45.156Z,21.08
2023-03-31T10:34:47.459Z,20.78
2023-03-31T10:35:54.876Z,20.17
2023-03-31T10:36:57.088Z,19.97
2023-03-31T10:38:05.765Z,19.60
2023-03-31T10:39:09.474Z,18.84
2023-03-31T10:40:18.307Z,18.81
2023-03-31T10:41:28.691Z,19.02
2023-03-31T10:42:30.832Z,19.14
2023-03-31T10:43:40.810Z,19.09
2023-03-31T10:44:43.274Z,19.09
2023-03-31T10:45:54.838Z,19.04
2023-03-31T10:47:05.641Z,19.22
2023-03-31T10:48:28.501Z,19.12
2023-03-31T10:49:30.656Z,19.41
2023-03-31T10:50:35.525Z,19.55
2023-03-31T10:51:38.015Z,19.40
2023-03-31T10:52:47.976Z,19.58
2023-03-31T10:53:51.633Z,20.08
2023-03-31T10:54:57.339Z,20.57
2023-03-31T10:56:24.189Z,20.58
2023-03-31T10:57:49.163Z,20.61
2023-03-31T10:59:10.363Z,20.79
2023-03-31T11:00:18.358Z,21.28
2023-03-31T11:01:33.028Z,21.95
2023-03-31T11:02:46.767Z,22.28
2023-03-31T11:04:01.192Z,22.19
2023-03-31T11:05:17.694Z,21.41
2023-03-31T11:06:34.103Z,21.83
2023-03-31T11:07:42.139Z,21.93
2023-03-31T11:08:58.064Z,21.83
2023-03-31T11:10:44.599Z,21.92
2023-03-31T11:11:58.511Z,21.65
2023-03-31T11:13:02.403Z,21.82
2023-03-31T11:14:10.327Z,22.90
2023-03-31T11:15:30.416Z,23.08
2023-03-31T11:16:41.622Z,23.43
2023-03-31T11:17:53.996Z,22.95
2023-03-31T11:19:20.806Z,21.52
2023-03-31T11:21:09.781Z,21.53
2023-03-31T11:22:30.392Z,21.81
2023-03-31T11:23:32.347Z,21.85
2023-03-31T11:24:50.888Z,21.88
2023-03-31T11:26:02.217Z,21.54
2023-03-31T11:27:16.186Z,21.27
2023-03-31T11:28:56.573Z,21.39
2023-03-31T11:30:24.967Z,21.96
2023-03-31T11:31:38.840Z,22.42
2023-03-31T11:33:16.017Z,20.92
2023-03-31T11:34:40.836Z,19.95
2023-03-31T11:36:09.442Z,20.17
2023-03-31T11:37:41.800Z,20.06
2023-03-31T11:38:47.408Z,20.26
2023-03-31T11:39:56.355Z,20.07
2023-03-31T11:41:03.390Z,20.00
2023-03-31T11:42:10.861Z,19.83
2023-03-31T11:43:17.257Z,19.38
2023-03-31T11:44:20.321Z,19.17
2023-03-31T11:45:27.494Z,19.09
2023-03-31T11:46:39.714Z,19.12
2023-03-31T11:47:44.669Z,19.30
2023-03-31T11:48:50.976Z,19.01
2023-03-31T11:49:59.149Z,19.02
2023-03-31T11:51:03.687Z,19.14
2023-03-31T11:52:19.747Z,19.28
2023-03-31T11:53:29.500Z,19.59
2023-03-31T11:54:39.574Z,19.92
2023-03-31T11:55:42.125Z,20.32
2023-03-31T11:56:44.637Z,21.02
2023-03-31T11:57:57.291Z,20.85
2023-03-31T11:58:59.916Z,20.50
2023-03-31T12:00:16.640Z,20.86
2023-03-31T12:01:26.219Z,21.17
2023-03-31T12:02:47.079Z,20.96
2023-03-31T12:04:02.277Z,20.83
2023-03-31T12:05:05.492Z,20.81
2023-03-31T12:06:19.869Z,20.69
2023-03-31T12:07:23.999Z,20.60
2023-03-31T12:08:29.609Z,20.38
2023-03-31T12:09:47.392Z,19.86
2023-03-31T12:10:56.426Z,19.75
2023-03-31T12:12:11.232Z,19.45
2023-03-31T12:13:31.989Z,19.49
2023-03-31T12:14:52.008Z,19.92
2023-03-31T12:16:13.339Z,19.98
2023-03-31T12:17:18.630Z,19.87
2023-03-31T12:18:22.937Z,19.79
2023-03-31T12:19:32.656Z,19.65
2023-03-31T12:20:38.134Z,19.69
2023-03-31T12:21:43.632Z,19.82
2023-03-31T12:22:47.497Z,20.03
2023-03-31T12:23:49.813Z,19.95
2023-03-31T12:24:52.567Z,20.34
2023-03-31T12:25:57.854Z,20.52
2023-03-31T12:26:59.940Z,20.49
2023-03-31T12:28:02.665Z,20.28
2023-03-31T12:29:12.920Z,20.29
2023-03-31T12:30:31.358Z,20.11
2023-03-31T12:31:35.467Z,20.18
2023-03-31T12:32:41.867Z,19.79
2023-03-31T12:33:47.310Z,19.85
2023-03-31T12:35:12.523Z,19.75
2023-03-31T12:36:55.793Z,19.67
2023-03-31T12:38:05.769Z,19.48
2023-03-31T12:39:35.191Z,19.36
2023-03-31T12:41:09.034Z,19.56
2023-03-31T12:42:32.547Z,19.49
2023-03-31T12:43:59.635Z,19.82
2023-03-31T12:45:13.166Z,20.47
2023-03-31T12:46:42.856Z,20.93
2023-03-31T12:48:19.736Z,22.25
2023-03-31T12:49:24.950Z,22.70
2023-03-31T12:50:42.031Z,22.24
2023-03-31T12:51:50.775Z,22.80
2023-03-31T12:53:01.575Z,21.88
2023-03-31T12:54:31.922Z,22.19
2023-03-31T12:55:37.983Z,22.28
2023-03-31T12:57:08.933Z,22.68
2023-03-31T12:58:32.325Z,23.39
2023-03-31T12:59:39.283Z,23.45
2023-03-31T13:01:16.678Z,22.28
2023-03-31T13:02:23.889Z,22.40
2023-03-31T13:03:35.445Z,23.09
2023-03-31T13:04:38.083Z,23.47
2023-03-31T13:05:47.559Z,22.95
2023-03-31T13:06:56.311Z,21.88
2023-03-31T13:07:59.297Z,21.67
2023-03-31T13:09:04.199Z,20.76
2023-03-31T13:10:18.246Z,20.56
2023-03-31T13:11:33.317Z,20.27
2023-03-31T13:12:36.086Z,20.06
2023-03-31T13:15:13.947Z,19.94
2023-03-31T13:16:20.078Z,20.23
2023-03-31T13:17:29.184Z,20.98
2023-03-31T13:18:33.804Z,21.53
2023-03-31T13:19:36.843Z,22.10
2023-03-31T13:20:40.937Z,22.11
2023-03-31T13:21:54.278Z,20.95
2023-03-31T13:23:02.386Z,20.71
2023-03-31T13:24:07.173Z,20.70
2023-03-31T13:25:30.534Z,20.93
2023-03-31T13:26:32.635Z,20.58
2023-03-31T13:27:34.884Z,20.34
2023-03-31T13:28:42.437Z,20.12
2023-03-31T13:29:44.909Z,19.85
2023-03-31T13:30:50.383Z,19.90
2023-03-31T13:32:01.623Z,19.81
2023-03-31T13:33:20.103Z,19.78
2023-03-31T13:34:22.566Z,19.70
2023-03-31T13:35:28.170Z,19.80
2023-03-31T13:36:44.352Z,19.60
2023-03-31T13:38:07.452Z,19.60
2023-03-31T13:39:13.675Z,19.50
2023-03-31T13:40:24.906Z,19.37
2023-03-31T13:41:33.009Z,19.25
2023-03-31T13:43:12.116Z,19.31
2023-03-31T13:45:08.202Z,19.17
2023-03-31T13:46:20.185Z,19.14
2023-03-31T13:47:40.974Z,18.97
2023-03-31T13:48:50.728Z,18.84
2023-03-31T13:50:27.906Z,18.68
2023-03-31T13:52:05.343Z,18.52
2023-03-31T13:53:16.702Z,18.49
2023-03-31T13:55:06.943Z,18.52
2023-03-31T13:56:39.548Z,18.44
2023-03-31T13:57:47.236Z,18.41
2023-03-31T13:59:11.078Z,18.37
2023-03-31T14:00:19.189Z,18.43
2023-03-31T14:01:41.171Z,18.49
2023-03-31T14:02:52.277Z,18.54
2023-03-31T14:04:22.070Z,18.81
2023-03-31T14:05:54.617Z,18.91
2023-03-31T14:06:59.264Z,19.13
2023-03-31T14:08:15.633Z,19.26
2023-03-31T14:09:25.944Z,19.41
2023-03-31T14:10:31.930Z,19.32
2023-03-31T14:11:34.102Z,19.10
2023-03-31T14:12:37.983Z,18.94
2023-03-31T14:13:40.247Z,19.13
2023-03-31T14:14:42.372Z,19.03
2023-03-31T14:15:55.856Z,18.96
2023-03-31T14:17:00.324Z,18.88
2023-03-31T14:18:04.110Z,18.92
2023-03-31T14:19:13.853Z,19.08
2023-03-31T14:20:28.366Z,19.04
2023-03-31T14:22:06.112Z,18.89
2023-03-31T14:23:10.797Z,19.02
2023-03-31T14:24:37.335Z,19.57
2023-03-31T14:25:48.605Z,19.93
2023-03-31T14:27:12.188Z,20.69
2023-03-31T14:28:23.594Z,21.71
2023-03-31T14:29:40.099Z,22.63
2023-03-31T14:30:52.826Z,23.55
2023-03-31T14:31:54.977Z,22.94
2023-03-31T14:33:04.179Z,23.14
2023-03-31T14:34:25.378Z,23.00
2023-03-31T14:35:38.932Z,22.84
2023-03-31T14:36:58.021Z,22.18
2023-03-31T14:38:02.946Z,22.34
2023-03-31T14:39:07.473Z,22.71
2023-03-31T14:40:14.026Z,22.59